createdAt,value
2023-02-26T00:00:08.452Z,100.00
2023-02-26T00:02:37.468Z,100.00
2023-02-26T00:05:07.362Z,100.00
2023-02-26T00:07:36.290Z,100.00
2023-02-26T00:10:08.144Z,100.00
2023-02-26T00:12:56.181Z,100.00
2023-02-26T00:15:25.677Z,100.00
2023-02-26T00:17:58.911Z,100.00
2023-02-26T00:20:31.157Z,100.00
2023-02-26T00:23:00.299Z,100.00
2023-02-26T00:25:30.392Z,100.00
2023-02-26T00:27:59.536Z,100.00
2023-02-26T00:30:28.935Z,100.00
2023-02-26T00:32:58.487Z,100.00
2023-02-26T00:35:28.067Z,100.00
2023-02-26T00:38:04.981Z,100.00
2023-02-26T00:40:45.302Z,100.00
2023-02-26T00:43:20.366Z,100.00
2023-02-26T00:45:55.081Z,100.00
2023-02-26T00:48:39.354Z,100.00
2023-02-26T00:51:14.813Z,100.00
2023-02-26T00:53:46.571Z,100.00
2023-02-26T00:56:16.929Z,100.00
2023-02-26T00:58:45.508Z,100.00
2023-02-26T01:01:14.251Z,100.00
2023-02-26T01:03:43.708Z,100.00
2023-02-26T01:06:13.750Z,100.00
2023-02-26T01:08:46.288Z,100.00
2023-02-26T01:11:19.796Z,100.00
2023-02-26T01:13:49.102Z,100.00
2023-02-26T01:16:26.867Z,100.00
2023-02-26T01:18:58.320Z,100.00
2023-02-26T01:21:33.125Z,100.00
2023-02-26T01:24:04.726Z,100.00
2023-02-26T01:26:34.905Z,100.00
2023-02-26T01:29:03.894Z,100.00
2023-02-26T01:31:41.017Z,100.00
2023-02-26T01:34:15.825Z,99.73
2023-02-26T01:36:50.110Z,99.11
2023-02-26T01:39:25.723Z,98.67
2023-02-26T01:41:57.958Z,99.73
2023-02-26T01:44:29.954Z,100.00
2023-02-26T01:47:14.828Z,100.00
2023-02-26T01:49:44.043Z,100.00
2023-02-26T01:52:45.949Z,100.00
2023-02-26T01:55:14.594Z,100.00
2023-02-26T01:57:44.957Z,100.00
2023-02-26T02:00:14.649Z,100.00
2023-02-26T02:02:43.575Z,100.00
2023-02-26T02:05:15.634Z,100.00
2023-02-26T02:07:44.643Z,100.00
2023-02-26T02:10:13.814Z,100.00
2023-02-26T02:12:48.914Z,100.00
2023-02-26T02:15:21.173Z,100.00
2023-02-26T02:17:52.778Z,100.00
2023-02-26T02:21:00.513Z,100.00
2023-02-26T02:23:32.650Z,99.61
2023-02-26T02:26:16.308Z,99.91
2023-02-26T02:28:56.449Z,100.00
2023-02-26T02:31:28.953Z,100.00
2023-02-26T02:34:00.578Z,100.00
2023-02-26T02:36:33.846Z,100.00
2023-02-26T02:39:06.685Z,100.00
2023-02-26T02:41:39.416Z,100.00
2023-02-26T02:44:13.885Z,100.00
2023-02-26T02:46:45.197Z,100.00
2023-02-26T02:49:48.994Z,100.00
2023-02-26T02:52:23.687Z,100.00
2023-02-26T02:54:55.850Z,100.00
2023-02-26T02:57:27.091Z,100.00
2023-02-26T02:59:59.550Z,100.00
2023-02-26T03:02:38.418Z,100.00
2023-02-26T03:05:07.200Z,100.00
2023-02-26T03:07:45.544Z,100.00
2023-02-26T03:10:15.631Z,100.00
2023-02-26T03:12:44.269Z,100.00
2023-02-26T03:15:13.520Z,100.00
2023-02-26T03:17:49.514Z,100.00
2023-02-26T03:20:22.818Z,100.00
2023-02-26T03:22:58.452Z,100.00
2023-02-26T03:25:29.456Z,100.00
2023-02-26T03:28:05.366Z,100.00
2023-02-26T03:30:37.154Z,100.00
2023-02-26T03:33:11.609Z,100.00
2023-02-26T03:35:46.735Z,100.00
2023-02-26T03:38:19.468Z,100.00
2023-02-26T03:40:50.822Z,100.00
2023-02-26T03:43:21.373Z,100.00
2023-02-26T03:45:52.641Z,100.00
2023-02-26T03:48:26.723Z,100.00
2023-02-26T03:50:57.646Z,100.00
2023-02-26T03:53:32.140Z,100.00
2023-02-26T03:56:06.513Z,100.00
2023-02-26T03:58:35.984Z,100.00
2023-02-26T04:01:07.205Z,100.00
2023-02-26T04:03:40.275Z,100.00
2023-02-26T04:06:08.716Z,100.00
2023-02-26T04:08:37.658Z,100.00
2023-02-26T04:11:13.911Z,100.00
2023-02-26T04:13:42.780Z,100.00
2023-02-26T04:16:11.445Z,100.00
2023-02-26T04:18:42.777Z,100.00
2023-02-26T04:21:13.456Z,100.00
2023-02-26T04:23:41.982Z,100.00
2023-02-26T04:26:10.728Z,100.00
2023-02-26T04:28:39.501Z,100.00
2023-02-26T04:31:09.622Z,100.00
2023-02-26T04:33:38.543Z,100.00
2023-02-26T04:36:09.408Z,100.00
2023-02-26T04:38:47.301Z,100.00
2023-02-26T04:41:15.853Z,100.00
2023-02-26T04:43:44.487Z,100.00
2023-02-26T04:46:17.275Z,100.00
2023-02-26T04:48:46.321Z,100.00
2023-02-26T04:51:16.357Z,100.00
2023-02-26T04:53:45.566Z,100.00
2023-02-26T04:56:14.160Z,100.00
2023-02-26T04:58:42.865Z,100.00
2023-02-26T05:01:11.311Z,100.00
2023-02-26T05:03:39.878Z,100.00
2023-02-26T05:06:09.075Z,100.00
2023-02-26T05:08:42.512Z,100.00
2023-02-26T05:11:11.191Z,100.00
2023-02-26T05:13:40.605Z,100.00
2023-02-26T05:16:09.711Z,100.00
2023-02-26T05:18:38.669Z,100.00
2023-02-26T05:21:07.762Z,100.00
2023-02-26T05:23:36.827Z,100.00
2023-02-26T05:26:07.373Z,100.00
2023-02-26T05:28:37.978Z,100.00
2023-02-26T05:31:07.181Z,100.00
2023-02-26T05:33:36.215Z,100.00
2023-02-26T05:36:04.935Z,100.00
2023-02-26T05:38:33.672Z,100.00
2023-02-26T05:41:02.383Z,100.00
2023-02-26T05:43:33.841Z,100.00
2023-02-26T05:46:02.397Z,100.00
2023-02-26T05:48:31.327Z,100.00
2023-02-26T05:51:00.708Z,100.00
2023-02-26T05:53:29.885Z,100.00
2023-02-26T05:55:58.618Z,100.00
2023-02-26T05:58:34.228Z,100.00
2023-02-26T06:01:03.144Z,100.00
2023-02-26T06:03:31.636Z,100.00
2023-02-26T06:06:03.236Z,100.00
2023-02-26T06:08:31.710Z,100.00
2023-02-26T06:11:00.291Z,100.00
2023-02-26T06:13:29.148Z,100.00
2023-02-26T06:15:59.107Z,100.00
2023-02-26T06:18:28.370Z,100.00
2023-02-26T06:20:56.824Z,100.00
2023-02-26T06:23:31.457Z,100.00
2023-02-26T06:26:00.085Z,100.00
2023-02-26T06:28:28.755Z,100.00
2023-02-26T06:31:15.353Z,100.00
2023-02-26T06:33:44.783Z,100.00
2023-02-26T06:36:13.380Z,100.00
2023-02-26T06:38:42.519Z,100.00
2023-02-26T06:41:11.043Z,100.00
2023-02-26T06:43:39.906Z,100.00
2023-02-26T06:46:09.755Z,100.00
2023-02-26T06:48:38.365Z,100.00
2023-02-26T06:51:07.648Z,100.00
2023-02-26T06:54:41.415Z,100.00
2023-02-26T06:57:10.709Z,100.00
2023-02-26T06:59:39.370Z,100.00
2023-02-26T07:02:09.122Z,100.00
2023-02-26T07:04:37.906Z,100.00
2023-02-26T07:07:06.902Z,100.00
2023-02-26T07:09:35.568Z,100.00
2023-02-26T07:12:04.229Z,100.00
2023-02-26T07:14:32.877Z,100.00
2023-02-26T07:17:01.922Z,100.00
2023-02-26T07:19:32.403Z,100.00
2023-02-26T07:22:00.750Z,100.00
2023-02-26T07:24:29.211Z,100.00
2023-02-26T07:26:57.890Z,100.00
2023-02-26T07:29:26.517Z,100.00
2023-02-26T07:31:55.106Z,100.00
2023-02-26T07:34:23.712Z,100.00
2023-02-26T07:36:53.632Z,100.00
2023-02-26T07:39:22.442Z,100.00
2023-02-26T07:41:51.028Z,100.00
2023-02-26T07:44:19.548Z,100.00
2023-02-26T07:46:48.004Z,100.00
2023-02-26T07:49:16.885Z,100.00
2023-02-26T07:51:46.334Z,100.00
2023-02-26T07:54:16.506Z,100.00
2023-02-26T07:56:45.117Z,100.00
2023-02-26T07:59:14.052Z,100.00
2023-02-26T08:01:42.436Z,100.00
2023-02-26T08:04:11.434Z,100.00
2023-02-26T08:06:43.195Z,100.00
2023-02-26T08:09:17.488Z,100.00
2023-02-26T08:11:47.802Z,100.00
2023-02-26T08:14:18.401Z,100.00
2023-02-26T08:16:47.212Z,100.00
2023-02-26T08:19:16.084Z,100.00
2023-02-26T08:21:47.865Z,100.00
2023-02-26T08:24:17.917Z,100.00
2023-02-26T08:26:47.351Z,100.00
2023-02-26T08:29:16.172Z,100.00
2023-02-26T08:31:44.972Z,100.00
2023-02-26T08:34:16.130Z,100.00
2023-02-26T08:36:45.249Z,100.00
2023-02-26T08:39:13.960Z,100.00
2023-02-26T08:41:44.409Z,99.59
2023-02-26T08:44:13.170Z,98.19
2023-02-26T08:46:41.997Z,98.40
2023-02-26T08:49:34.920Z,98.29
2023-02-26T08:52:03.846Z,100.00
2023-02-26T08:54:32.707Z,99.73
2023-02-26T08:57:03.644Z,98.45
2023-02-26T08:59:35.536Z,96.38
2023-02-26T09:02:04.248Z,90.05
2023-02-26T09:04:33.187Z,89.32
2023-02-26T09:07:03.081Z,87.63
2023-02-26T09:09:42.799Z,86.85
2023-02-26T09:12:12.709Z,84.35
2023-02-26T09:14:41.577Z,81.93
2023-02-26T09:17:11.424Z,80.84
2023-02-26T09:19:39.944Z,79.07
2023-02-26T09:22:09.075Z,77.11
2023-02-26T09:24:37.702Z,76.81
2023-02-26T09:27:06.384Z,75.98
2023-02-26T09:29:36.583Z,75.46
2023-02-26T09:32:08.735Z,75.36
2023-02-26T09:34:37.306Z,78.13
2023-02-26T09:37:07.717Z,79.17
2023-02-26T09:39:36.845Z,80.86
2023-02-26T09:42:19.202Z,80.79
2023-02-26T09:44:49.384Z,78.66
2023-02-26T09:47:25.454Z,79.05
2023-02-26T09:49:58.676Z,74.72
2023-02-26T09:52:29.830Z,72.41
2023-02-26T09:55:02.217Z,69.19
2023-02-26T09:57:33.301Z,65.74
2023-02-26T10:00:31.331Z,60.50
2023-02-26T10:03:08.929Z,59.85
2023-02-26T10:05:42.583Z,62.50
2023-02-26T10:08:17.118Z,62.55
2023-02-26T10:10:51.572Z,64.13
2023-02-26T10:13:26.653Z,67.17
2023-02-26T10:15:59.639Z,67.10
2023-02-26T10:18:32.879Z,70.46
2023-02-26T10:21:03.876Z,73.35
2023-02-26T10:23:42.824Z,75.47
2023-02-26T10:26:15.683Z,76.40
2023-02-26T10:28:54.468Z,76.92
2023-02-26T10:31:29.787Z,76.59
2023-02-26T10:34:05.780Z,76.07
2023-02-26T10:36:42.682Z,75.18
2023-02-26T10:39:36.842Z,71.49
2023-02-26T10:42:13.918Z,65.10
2023-02-26T10:44:49.586Z,55.70
2023-02-26T10:47:24.659Z,49.49
2023-02-26T10:49:55.764Z,43.34
2023-02-26T10:52:26.764Z,41.32
2023-02-26T10:55:26.893Z,40.27
2023-02-26T10:58:05.966Z,38.02
2023-02-26T11:00:37.538Z,38.46
2023-02-26T11:03:09.519Z,37.04
2023-02-26T11:05:38.746Z,33.92
2023-02-26T11:08:12.513Z,30.76
2023-02-26T11:10:44.835Z,29.13
2023-02-26T11:13:13.619Z,29.54
2023-02-26T11:15:43.463Z,29.22
2023-02-26T11:18:18.622Z,26.83
2023-02-26T11:20:51.393Z,26.53
2023-02-26T11:23:22.645Z,27.24
2023-02-26T11:25:56.221Z,28.23
2023-02-26T11:28:32.968Z,32.83
2023-02-26T11:31:03.427Z,37.53
2023-02-26T11:33:38.754Z,35.63
2023-02-26T11:36:14.980Z,33.79
2023-02-26T11:38:46.559Z,33.68
2023-02-26T11:41:15.692Z,35.74
2023-02-26T11:43:45.788Z,36.67
2023-02-26T11:46:15.365Z,42.73
2023-02-26T11:48:48.559Z,45.06
2023-02-26T11:51:21.158Z,49.63
2023-02-26T11:53:51.406Z,53.87
2023-02-26T11:56:28.826Z,56.73
2023-02-26T11:59:00.522Z,58.40
2023-02-26T12:01:31.199Z,58.33
2023-02-26T12:04:03.865Z,57.29
2023-02-26T12:06:32.696Z,56.35
2023-02-26T12:09:01.800Z,55.30
2023-02-26T12:11:55.652Z,57.65
2023-02-26T12:14:43.825Z,56.58
2023-02-26T12:17:27.265Z,58.27
2023-02-26T12:20:15.329Z,60.96
2023-02-26T12:22:55.278Z,59.87
2023-02-26T12:25:38.163Z,61.45
2023-02-26T12:28:41.674Z,57.41
2023-02-26T12:31:44.262Z,55.46
2023-02-26T12:34:24.538Z,54.50
2023-02-26T12:37:06.531Z,56.25
2023-02-26T12:39:44.834Z,52.53
2023-02-26T12:42:22.799Z,54.75
2023-02-26T12:45:06.533Z,53.36
2023-02-26T12:47:45.331Z,54.76
2023-02-26T12:50:23.762Z,52.04
2023-02-26T12:53:14.573Z,52.80
2023-02-26T12:55:52.484Z,51.76
2023-02-26T12:58:36.203Z,54.13
2023-02-26T13:01:43.374Z,54.83
2023-02-26T13:04:37.710Z,54.37
2023-02-26T13:07:37.027Z,59.43
2023-02-26T13:10:15.483Z,54.46
2023-02-26T13:12:48.610Z,57.69
2023-02-26T13:15:37.297Z,56.26
2023-02-26T13:18:11.519Z,55.19
2023-02-26T13:20:54.343Z,51.57
2023-02-26T13:23:25.407Z,51.96
2023-02-26T13:25:58.024Z,53.27
2023-02-26T13:28:48.534Z,54.20
2023-02-26T13:31:21.541Z,53.17
2023-02-26T13:33:51.063Z,58.12
2023-02-26T13:36:22.631Z,59.06
2023-02-26T13:39:06.083Z,58.80
2023-02-26T13:41:44.893Z,58.22
2023-02-26T13:44:26.801Z,59.81
2023-02-26T13:47:31.316Z,57.97
2023-02-26T13:50:23.834Z,57.10
2023-02-26T13:52:56.494Z,55.49
2023-02-26T13:55:40.380Z,56.77
2023-02-26T13:58:30.334Z,56.63
2023-02-26T14:01:07.047Z,56.88
2023-02-26T14:03:37.632Z,58.59
2023-02-26T14:06:22.698Z,58.42
2023-02-26T14:08:53.729Z,51.40
2023-02-26T14:11:49.170Z,49.03
2023-02-26T14:14:36.145Z,46.61
2023-02-26T14:17:30.170Z,39.08
2023-02-26T14:20:23.537Z,35.84
2023-02-26T14:23:15.189Z,34.04
2023-02-26T14:25:48.883Z,34.45
2023-02-26T14:28:40.940Z,35.23
2023-02-26T14:31:20.056Z,35.76
2023-02-26T14:33:59.850Z,39.50
2023-02-26T14:36:35.930Z,39.04
2023-02-26T14:39:09.479Z,37.26
2023-02-26T14:41:41.651Z,36.60
2023-02-26T14:44:17.257Z,34.12
2023-02-26T14:46:47.797Z,35.91
2023-02-26T14:49:20.412Z,38.28
2023-02-26T14:52:12.115Z,42.60
2023-02-26T14:55:04.960Z,42.01
2023-02-26T15:00:40.057Z,37.51
2023-02-26T15:03:33.422Z,36.39
2023-02-26T15:06:11.477Z,36.12
2023-02-26T15:08:56.435Z,35.77
2023-02-26T15:11:38.479Z,37.90
2023-02-26T15:14:27.694Z,40.72
2023-02-26T15:17:07.420Z,44.95
2023-02-26T15:19:51.795Z,47.05
2023-02-26T15:22:29.920Z,50.73
2023-02-26T15:25:02.946Z,51.77
2023-02-26T15:27:33.572Z,53.89
2023-02-26T15:30:02.533Z,54.22
2023-02-26T15:32:32.827Z,56.61
2023-02-26T15:35:06.393Z,57.93
2023-02-26T15:37:35.757Z,59.70
2023-02-26T15:40:07.080Z,63.88
2023-02-26T15:42:38.815Z,64.19
2023-02-26T15:45:13.508Z,66.24
2023-02-26T15:47:43.299Z,71.25
2023-02-26T15:50:18.106Z,73.00
2023-02-26T15:52:49.117Z,74.14
2023-02-26T15:55:19.279Z,75.27
2023-02-26T15:57:49.444Z,76.50
2023-02-26T16:00:24.831Z,80.74
2023-02-26T16:02:57.506Z,82.75
2023-02-26T16:05:33.700Z,83.75
2023-02-26T16:08:02.311Z,85.40
2023-02-26T16:10:38.367Z,85.77
2023-02-26T16:13:08.953Z,85.65
2023-02-26T16:15:40.365Z,86.94
2023-02-26T16:18:10.723Z,87.77
2023-02-26T16:20:44.686Z,88.50
2023-02-26T16:23:15.023Z,88.43
2023-02-26T16:25:46.667Z,89.15
2023-02-26T16:28:17.372Z,89.80
2023-02-26T16:30:50.747Z,91.00
2023-02-26T16:33:23.823Z,92.52
2023-02-26T16:35:56.784Z,94.04
2023-02-26T16:38:27.816Z,95.56
2023-02-26T16:41:01.150Z,95.58
2023-02-26T16:43:50.609Z,96.22
2023-02-26T16:46:23.988Z,95.98
2023-02-26T16:48:54.812Z,96.24
2023-02-26T16:51:26.194Z,96.00
2023-02-26T16:53:59.274Z,96.13
2023-02-26T16:56:34.709Z,96.46
2023-02-26T16:59:07.282Z,96.08
2023-02-26T17:01:39.683Z,95.92
2023-02-26T17:04:09.164Z,95.84
2023-02-26T17:06:40.070Z,97.27
2023-02-26T17:09:32.819Z,97.83
2023-02-26T17:12:17.232Z,96.49
2023-02-26T17:15:02.833Z,94.06
2023-02-26T17:17:33.594Z,94.91
2023-02-26T17:20:03.719Z,93.56
2023-02-26T17:22:33.724Z,94.24
2023-02-26T17:25:06.088Z,92.94
2023-02-26T17:27:36.345Z,94.28
2023-02-26T17:30:08.178Z,95.33
2023-02-26T17:32:37.372Z,95.69
2023-02-26T17:35:06.428Z,96.21
2023-02-26T17:37:37.366Z,95.44
2023-02-26T17:40:09.795Z,93.77
2023-02-26T17:42:38.454Z,93.11
2023-02-26T17:45:10.491Z,91.74
2023-02-26T17:47:39.226Z,92.40
2023-02-26T17:50:17.009Z,91.68
2023-02-26T17:52:49.354Z,90.49
2023-02-26T17:55:17.823Z,90.41
2023-02-26T17:57:49.950Z,89.56
2023-02-26T18:00:31.514Z,89.05
2023-02-26T18:03:00.653Z,89.09
2023-02-26T18:05:32.943Z,88.79
2023-02-26T18:08:05.429Z,88.49
2023-02-26T18:10:34.772Z,88.56
2023-02-26T18:13:03.676Z,89.47
2023-02-26T18:15:32.520Z,89.11
2023-02-26T18:18:01.465Z,89.73
2023-02-26T18:20:30.859Z,89.70
2023-02-26T18:23:01.516Z,90.18
2023-02-26T18:25:31.646Z,89.88
2023-02-26T18:28:01.046Z,90.25
2023-02-26T18:30:32.054Z,89.95
2023-02-26T18:33:04.118Z,90.49
2023-02-26T18:35:35.850Z,90.55
2023-02-26T18:38:29.595Z,91.29
2023-02-26T18:41:03.149Z,91.92
2023-02-26T18:43:32.051Z,92.60
2023-02-26T18:46:25.540Z,92.85
2023-02-26T18:48:55.986Z,93.26
2023-02-26T18:51:28.333Z,93.04
2023-02-26T18:54:00.000Z,92.95
2023-02-26T18:56:30.452Z,93.11
2023-02-26T18:58:58.931Z,93.20
2023-02-26T19:01:30.097Z,93.12
2023-02-26T19:04:01.338Z,93.10
2023-02-26T19:06:29.953Z,92.42
2023-02-26T19:09:03.157Z,93.41
2023-02-26T19:11:33.732Z,93.73
2023-02-26T19:14:02.441Z,94.01
2023-02-26T19:16:35.366Z,94.18
2023-02-26T19:19:05.443Z,93.44
2023-02-26T19:21:36.697Z,94.29
2023-02-26T19:24:06.318Z,94.21
2023-02-26T19:26:36.847Z,94.29
2023-02-26T19:29:06.472Z,94.29
2023-02-26T19:31:36.694Z,94.34
2023-02-26T19:34:05.869Z,94.67
2023-02-26T19:36:40.772Z,95.54
2023-02-26T19:39:12.126Z,94.99
2023-02-26T19:41:42.398Z,94.79
2023-02-26T19:44:14.421Z,94.55
2023-02-26T19:46:43.593Z,95.08
2023-02-26T19:49:12.686Z,95.71
2023-02-26T19:51:41.693Z,95.27
2023-02-26T19:54:10.903Z,94.83
2023-02-26T19:56:42.465Z,94.52
2023-02-26T19:59:16.082Z,93.79
2023-02-26T20:01:46.630Z,93.84
2023-02-26T20:04:15.938Z,93.44
2023-02-26T20:06:45.215Z,93.76
2023-02-26T20:09:14.872Z,93.36
2023-02-26T20:11:44.077Z,94.13
2023-02-26T20:14:18.803Z,94.35
2023-02-26T20:16:51.976Z,94.34
2023-02-26T20:19:20.847Z,94.11
2023-02-26T20:21:50.693Z,94.11
2023-02-26T20:24:20.365Z,94.16
2023-02-26T20:26:50.076Z,93.59
2023-02-26T20:29:19.878Z,93.18
2023-02-26T20:31:51.092Z,93.28
2023-02-26T20:34:20.414Z,93.38
2023-02-26T20:36:50.907Z,93.21
2023-02-26T20:39:21.257Z,93.53
2023-02-26T20:41:50.812Z,94.14
2023-02-26T20:44:20.235Z,93.68
2023-02-26T20:46:52.857Z,94.18
2023-02-26T20:49:30.666Z,93.37
2023-02-26T20:52:02.476Z,93.40
2023-02-26T20:54:31.055Z,92.86
2023-02-26T20:57:00.176Z,92.32
2023-02-26T20:59:31.622Z,93.18
2023-02-26T21:02:07.129Z,93.66
2023-02-26T21:04:36.517Z,94.14
2023-02-26T21:07:21.840Z,93.65
2023-02-26T21:09:52.226Z,93.33
2023-02-26T21:12:21.029Z,93.04
2023-02-26T21:14:51.626Z,92.96
2023-02-26T21:17:22.990Z,92.62
2023-02-26T21:19:51.837Z,93.63
2023-02-26T21:22:20.874Z,93.90
2023-02-26T21:24:49.914Z,93.30
2023-02-26T21:27:18.487Z,93.34
2023-02-26T21:29:47.469Z,94.00
2023-02-26T21:32:16.369Z,94.67
2023-02-26T21:34:46.975Z,94.50
2023-02-26T21:37:15.692Z,94.46
2023-02-26T21:39:44.497Z,94.31
2023-02-26T21:42:14.263Z,94.18
2023-02-26T21:44:43.288Z,94.67
2023-02-26T21:47:12.567Z,94.46
2023-02-26T21:49:41.008Z,95.28
2023-02-26T21:52:12.424Z,95.29
2023-02-26T21:54:46.956Z,95.53
2023-02-26T21:57:15.941Z,96.13
2023-02-26T21:59:44.377Z,95.53
2023-02-26T22:02:18.328Z,96.04
2023-02-26T22:04:47.367Z,95.94
2023-02-26T22:07:17.254Z,95.71
2023-02-26T22:09:48.841Z,95.23
2023-02-26T22:12:47.570Z,95.73
2023-02-26T22:15:16.556Z,95.76
2023-02-26T22:17:45.174Z,95.68
2023-02-26T22:20:14.275Z,95.96
2023-02-26T22:22:44.789Z,95.97
2023-02-26T22:25:14.067Z,95.64
2023-02-26T22:27:42.993Z,95.61
2023-02-26T22:30:12.762Z,96.15
2023-02-26T22:32:44.034Z,96.46
2023-02-26T22:35:17.408Z,96.29
2023-02-26T22:37:47.482Z,95.84
2023-02-26T22:40:16.809Z,94.55
2023-02-26T22:42:45.767Z,93.89
2023-02-26T22:45:17.444Z,93.99
2023-02-26T22:47:46.862Z,93.75
2023-02-26T22:50:16.081Z,92.86
2023-02-26T22:52:47.771Z,92.90
2023-02-26T22:55:16.387Z,92.93
2023-02-26T22:57:47.541Z,92.83
2023-02-26T23:00:18.984Z,92.77
2023-02-26T23:02:48.007Z,93.25
2023-02-26T23:05:17.203Z,92.45
2023-02-26T23:07:45.619Z,93.18
2023-02-26T23:10:17.677Z,93.05
2023-02-26T23:12:47.176Z,92.99
2023-02-26T23:15:18.002Z,92.23
2023-02-26T23:17:47.027Z,91.90
2023-02-26T23:20:16.602Z,91.82
2023-02-26T23:22:46.092Z,92.12
2023-02-26T23:25:17.290Z,92.10
2023-02-26T23:27:46.851Z,91.57
2023-02-26T23:30:16.179Z,91.95
2023-02-26T23:32:46.883Z,91.74
2023-02-26T23:35:36.498Z,91.47
2023-02-26T23:38:44.234Z,91.24
2023-02-26T23:41:14.692Z,91.06
2023-02-26T23:43:47.345Z,90.44
2023-02-26T23:46:16.040Z,90.69
2023-02-26T23:48:47.824Z,90.63
2023-02-26T23:53:59.083Z,90.23
2023-02-26T23:56:31.042Z,90.37
2023-02-26T23:59:00.653Z,90.50
